createdAt,value
2023-02-17T00:01:11.799Z,17.27
2023-02-17T00:03:38.182Z,17.10
2023-02-17T00:06:09.537Z,16.80
2023-02-17T00:08:36.038Z,17.33
2023-02-17T00:11:02.620Z,15.57
2023-02-17T00:13:29.020Z,15.65
2023-02-17T00:15:55.469Z,16.00
2023-02-17T00:18:22.286Z,16.45
2023-02-17T00:20:48.700Z,15.75
2023-02-17T00:23:15.089Z,15.90
2023-02-17T00:25:41.416Z,17.38
2023-02-17T00:28:07.833Z,14.40
2023-02-17T00:30:34.367Z,15.88
2023-02-17T00:33:01.052Z,15.57
2023-02-17T00:35:27.492Z,16.42
2023-02-17T00:37:53.804Z,16.35
2023-02-17T00:40:20.193Z,16.13
2023-02-17T00:42:46.559Z,14.35
2023-02-17T00:45:12.959Z,14.38
2023-02-17T00:47:39.268Z,14.88
2023-02-17T00:50:06.796Z,15.35
2023-02-17T00:52:33.133Z,14.80
2023-02-17T00:54:59.528Z,14.93
2023-02-17T00:57:26.302Z,15.05
2023-02-17T00:59:52.733Z,15.20
2023-02-17T01:02:19.111Z,15.00
2023-02-17T01:04:45.528Z,14.02
2023-02-17T01:07:11.919Z,13.80
2023-02-17T01:09:38.272Z,15.30
2023-02-17T01:12:04.700Z,15.52
2023-02-17T01:14:31.050Z,14.73
2023-02-17T01:16:57.459Z,14.13
2023-02-17T01:19:23.822Z,14.23
2023-02-17T01:21:50.395Z,14.13
2023-02-17T01:24:16.814Z,14.60
2023-02-17T01:26:43.242Z,13.85
2023-02-17T01:29:10.029Z,13.68
2023-02-17T01:31:36.693Z,13.65
2023-02-17T01:34:04.432Z,13.70
2023-02-17T01:36:31.240Z,12.98
2023-02-17T01:38:57.660Z,13.93
2023-02-17T01:41:28.634Z,14.63
2023-02-17T01:44:18.219Z,13.40
2023-02-17T01:46:46.685Z,13.27
2023-02-17T01:49:25.496Z,13.38
2023-02-17T01:52:20.803Z,13.32
2023-02-17T01:54:57.733Z,12.68
2023-02-17T01:57:26.714Z,12.35
2023-02-17T01:59:53.749Z,13.27
2023-02-17T02:02:20.546Z,13.52
2023-02-17T02:04:49.618Z,13.43
2023-02-17T02:07:22.225Z,13.98
2023-02-17T02:09:54.422Z,13.35
2023-02-17T02:12:33.497Z,13.23
2023-02-17T02:15:02.868Z,12.60
2023-02-17T02:17:40.835Z,12.70
2023-02-17T02:20:46.358Z,13.07
2023-02-17T02:23:31.203Z,12.23
2023-02-17T02:26:03.690Z,11.82
2023-02-17T02:28:58.108Z,13.98
2023-02-17T02:32:02.146Z,12.90
2023-02-17T02:34:38.919Z,11.60
2023-02-17T02:37:10.562Z,12.20
2023-02-17T02:39:42.924Z,12.02
2023-02-17T02:42:13.265Z,12.68
2023-02-17T02:44:39.654Z,12.50
2023-02-17T02:47:44.429Z,11.88
2023-02-17T02:50:14.604Z,13.40
2023-02-17T02:53:13.064Z,12.43
2023-02-17T02:56:07.815Z,11.85
2023-02-17T02:58:52.044Z,12.40
2023-02-17T03:01:52.423Z,12.18
2023-02-17T03:04:40.281Z,10.57
2023-02-17T03:07:22.096Z,11.48
2023-02-17T03:09:50.737Z,10.77
2023-02-17T03:12:17.506Z,11.23
2023-02-17T03:14:43.984Z,11.07
2023-02-17T03:17:10.558Z,11.57
2023-02-17T03:19:37.180Z,10.57
2023-02-17T03:22:24.650Z,11.15
2023-02-17T03:24:51.536Z,11.02
2023-02-17T03:27:18.017Z,10.43
2023-02-17T03:29:44.433Z,11.38
2023-02-17T03:32:10.865Z,10.75
2023-02-17T03:34:37.317Z,9.50
2023-02-17T03:37:03.746Z,10.43
2023-02-17T03:39:30.270Z,8.60
2023-02-17T03:41:56.631Z,9.25
2023-02-17T03:44:23.014Z,9.73
2023-02-17T03:46:49.382Z,8.98
2023-02-17T03:49:15.786Z,9.85
2023-02-17T03:51:42.112Z,8.77
2023-02-17T03:54:09.365Z,8.43
2023-02-17T03:56:35.765Z,9.10
2023-02-17T03:59:02.393Z,9.85
2023-02-17T04:01:28.801Z,8.52
2023-02-17T04:03:55.407Z,9.13
2023-02-17T04:06:21.801Z,9.23
2023-02-17T04:08:48.198Z,8.80
2023-02-17T04:11:14.553Z,8.85
2023-02-17T04:13:40.990Z,9.07
2023-02-17T04:16:09.403Z,8.48
2023-02-17T04:18:36.450Z,9.23
2023-02-17T04:21:03.292Z,9.20
2023-02-17T04:23:29.680Z,9.93
2023-02-17T04:25:56.109Z,10.20
2023-02-17T04:28:22.910Z,9.90
2023-02-17T04:30:50.821Z,9.23
2023-02-17T04:35:43.480Z,9.38
2023-02-17T04:38:10.586Z,9.55
2023-02-17T04:40:37.758Z,8.82
2023-02-17T04:43:04.290Z,9.15
2023-02-17T04:45:30.666Z,8.50
2023-02-17T04:47:57.057Z,8.50
2023-02-17T04:50:23.416Z,8.68
2023-02-17T04:52:49.796Z,9.10
2023-02-17T04:55:16.200Z,8.63
2023-02-17T04:57:42.591Z,9.20
2023-02-17T05:00:09.386Z,8.68
2023-02-17T05:02:35.757Z,9.00
2023-02-17T05:05:02.137Z,8.75
2023-02-17T05:07:28.577Z,8.73
2023-02-17T05:09:54.968Z,8.95
2023-02-17T05:12:21.322Z,8.57
2023-02-17T05:14:47.713Z,8.85
2023-02-17T05:17:14.175Z,8.93
2023-02-17T05:19:40.522Z,8.55
2023-02-17T05:22:06.904Z,9.00
2023-02-17T05:24:33.328Z,8.80
2023-02-17T05:26:59.673Z,8.73
2023-02-17T05:29:26.034Z,8.85
2023-02-17T05:31:52.457Z,8.40
2023-02-17T05:34:18.826Z,8.30
2023-02-17T05:36:45.163Z,8.10
2023-02-17T05:39:11.741Z,8.00
2023-02-17T05:41:38.168Z,8.27
2023-02-17T05:44:04.731Z,8.18
2023-02-17T05:46:31.118Z,7.18
2023-02-17T05:48:57.502Z,7.38
2023-02-17T05:51:23.941Z,6.57
2023-02-17T05:53:50.308Z,7.72
2023-02-17T05:56:16.620Z,6.93
2023-02-17T05:58:43.084Z,7.15
2023-02-17T06:01:10.359Z,6.57
2023-02-17T06:03:37.270Z,6.60
2023-02-17T06:06:04.595Z,6.03
2023-02-17T06:08:31.272Z,5.88
2023-02-17T06:10:57.632Z,6.00
2023-02-17T06:13:23.934Z,5.53
2023-02-17T06:15:50.289Z,5.43
2023-02-17T06:18:16.936Z,5.00
2023-02-17T06:20:43.392Z,4.95
2023-02-17T06:23:09.985Z,4.93
2023-02-17T06:25:36.344Z,3.10
2023-02-17T06:28:02.858Z,5.18
2023-02-17T06:30:29.751Z,4.03
2023-02-17T06:32:56.349Z,4.22
2023-02-17T06:35:22.727Z,3.97
2023-02-17T06:37:49.193Z,4.18
2023-02-17T06:40:15.940Z,3.58
2023-02-17T06:42:42.363Z,4.40
2023-02-17T06:45:09.074Z,3.63
2023-02-17T06:47:35.740Z,3.95
2023-02-17T06:50:02.155Z,3.78
2023-02-17T06:52:28.513Z,3.78
2023-02-17T06:54:54.832Z,4.15
2023-02-17T06:57:21.178Z,3.83
2023-02-17T06:59:47.547Z,4.20
2023-02-17T07:02:14.569Z,3.90
2023-02-17T07:04:41.672Z,4.03
2023-02-17T07:07:08.647Z,3.75
2023-02-17T07:09:34.968Z,3.88
2023-02-17T07:12:01.765Z,3.50
2023-02-17T07:14:28.191Z,3.47
2023-02-17T07:16:55.012Z,4.07
2023-02-17T07:19:21.521Z,3.80
2023-02-17T07:21:47.926Z,3.30
2023-02-17T07:24:14.316Z,3.53
2023-02-17T07:26:40.835Z,4.38
2023-02-17T07:29:07.850Z,3.63
2023-02-17T07:31:35.239Z,4.38
2023-02-17T07:34:02.869Z,3.72
2023-02-17T07:36:29.476Z,4.40
2023-02-17T07:38:56.128Z,3.67
2023-02-17T07:41:30.641Z,3.53
2023-02-17T07:43:57.554Z,4.53
2023-02-17T07:46:24.752Z,4.25
2023-02-17T07:48:51.285Z,3.72
2023-02-17T07:51:20.658Z,4.47
2023-02-17T07:53:47.906Z,2.78
2023-02-17T07:56:16.055Z,4.22
2023-02-17T07:58:43.345Z,4.38
2023-02-17T08:01:15.748Z,4.15
2023-02-17T08:03:42.934Z,3.78
2023-02-17T08:06:14.619Z,3.88
2023-02-17T08:08:59.500Z,3.55
2023-02-17T08:11:46.465Z,3.83
2023-02-17T08:14:13.564Z,4.03
2023-02-17T08:16:40.333Z,2.28
2023-02-17T08:19:07.732Z,3.20
2023-02-17T08:21:34.198Z,3.17
2023-02-17T08:24:00.577Z,3.60
2023-02-17T08:26:27.792Z,3.50
2023-02-17T08:28:54.108Z,3.22
2023-02-17T08:31:23.380Z,3.20
2023-02-17T08:33:50.157Z,3.03
2023-02-17T08:36:16.784Z,3.58
2023-02-17T08:38:48.417Z,3.42
2023-02-17T08:41:19.096Z,3.03
2023-02-17T08:43:45.550Z,2.92
2023-02-17T08:46:12.571Z,2.83
2023-02-17T08:48:39.088Z,2.60
2023-02-17T08:51:05.792Z,2.97
2023-02-17T08:53:33.366Z,2.83
2023-02-17T08:55:59.922Z,2.50
2023-02-17T08:58:26.310Z,3.33
2023-02-17T09:00:52.749Z,2.65
2023-02-17T09:03:19.190Z,4.13
2023-02-17T09:05:45.664Z,3.28
2023-02-17T09:08:12.088Z,3.47
2023-02-17T09:10:38.525Z,2.65
2023-02-17T09:13:05.408Z,4.10
2023-02-17T09:15:31.866Z,3.90
2023-02-17T09:17:58.452Z,5.10
2023-02-17T09:20:25.584Z,3.90
2023-02-17T09:22:52.469Z,4.03
2023-02-17T09:25:19.064Z,4.57
2023-02-17T09:27:45.518Z,4.72
2023-02-17T09:30:12.419Z,4.93
2023-02-17T09:32:41.930Z,4.55
2023-02-17T09:35:11.336Z,3.83
2023-02-17T09:37:37.734Z,4.82
2023-02-17T09:40:04.693Z,4.45
2023-02-17T09:42:34.109Z,4.60
2023-02-17T09:45:06.322Z,4.72
2023-02-17T09:47:36.417Z,4.57
2023-02-17T09:50:06.946Z,4.97
2023-02-17T09:52:36.026Z,4.53
2023-02-17T09:55:09.317Z,4.20
2023-02-17T09:57:43.203Z,4.47
2023-02-17T10:00:15.823Z,3.83
2023-02-17T10:02:56.490Z,3.95
2023-02-17T10:05:25.758Z,4.13
2023-02-17T10:07:56.526Z,4.10
2023-02-17T10:10:26.473Z,4.03
2023-02-17T10:12:56.638Z,3.90
2023-02-17T10:15:25.539Z,3.45
2023-02-17T10:17:55.986Z,2.90
2023-02-17T10:20:35.958Z,2.88
2023-02-17T10:23:07.430Z,3.70
2023-02-17T10:25:59.478Z,3.25
2023-02-17T10:28:39.640Z,1.90
2023-02-17T10:31:12.795Z,3.28
2023-02-17T10:33:52.950Z,2.20
2023-02-17T10:36:33.858Z,3.40
2023-02-17T10:39:03.880Z,2.78
2023-02-17T10:41:35.128Z,2.63
2023-02-17T10:44:03.260Z,2.47
2023-02-17T10:46:30.585Z,2.60
2023-02-17T10:48:57.893Z,2.80
2023-02-17T10:51:31.195Z,2.10
2023-02-17T10:54:01.717Z,2.22
2023-02-17T10:56:44.704Z,2.95
2023-02-17T10:59:22.506Z,2.35
2023-02-17T11:01:49.296Z,2.55
2023-02-17T11:04:15.694Z,2.00
2023-02-17T11:06:44.594Z,2.30
2023-02-17T11:09:29.299Z,2.13
2023-02-17T11:12:12.223Z,2.28
2023-02-17T11:14:48.750Z,1.42
2023-02-17T11:17:30.583Z,1.98
2023-02-17T11:20:04.956Z,2.45
2023-02-17T11:22:37.036Z,1.98
2023-02-17T11:25:18.909Z,1.77
2023-02-17T11:27:52.238Z,1.98
2023-02-17T11:30:18.999Z,1.90
2023-02-17T11:32:45.547Z,1.40
2023-02-17T11:35:54.050Z,2.53
2023-02-17T11:38:23.466Z,2.38
2023-02-17T11:41:03.926Z,2.08
2023-02-17T11:48:32.456Z,1.50
2023-02-17T11:51:23.151Z,2.38
2023-02-17T11:54:06.646Z,2.15
2023-02-17T11:56:35.367Z,1.52
2023-02-17T11:59:26.639Z,2.13
2023-02-17T12:02:05.261Z,1.70
2023-02-17T12:04:33.583Z,1.70
2023-02-17T12:07:22.737Z,1.70
2023-02-17T12:10:16.104Z,1.80
2023-02-17T12:13:05.251Z,1.98
2023-02-17T12:15:40.821Z,1.70
2023-02-17T12:18:31.484Z,2.22
2023-02-17T12:21:12.446Z,2.00
2023-02-17T12:23:49.984Z,1.50
2023-02-17T12:26:24.723Z,1.48
2023-02-17T12:29:23.450Z,1.83
2023-02-17T12:31:58.755Z,1.83
2023-02-17T12:35:00.210Z,1.67
2023-02-17T12:37:34.158Z,1.77
2023-02-17T12:40:10.492Z,1.65
2023-02-17T12:42:40.294Z,1.92
2023-02-17T12:45:31.406Z,1.83
2023-02-17T12:48:02.842Z,1.10
2023-02-17T12:50:35.903Z,1.70
2023-02-17T12:53:06.671Z,1.90
2023-02-17T12:55:48.738Z,1.95
2023-02-17T12:58:21.569Z,1.67
2023-02-17T13:01:06.880Z,1.88
2023-02-17T13:03:35.399Z,1.88
2023-02-17T13:06:29.568Z,1.60
2023-02-17T13:08:58.613Z,1.40
2023-02-17T13:11:30.723Z,1.35
2023-02-17T13:13:57.283Z,1.77
2023-02-17T13:16:23.778Z,1.67
2023-02-17T13:18:51.879Z,1.83
2023-02-17T13:21:32.346Z,1.60
2023-02-17T13:23:58.753Z,1.58
2023-02-17T13:26:30.787Z,1.52
2023-02-17T13:29:23.348Z,1.30
2023-02-17T13:31:54.330Z,1.90
2023-02-17T13:34:31.700Z,1.70
2023-02-17T13:36:58.577Z,1.40
2023-02-17T13:39:27.885Z,1.65
2023-02-17T13:41:59.292Z,1.42
2023-02-17T13:44:40.126Z,1.70
2023-02-17T13:47:14.116Z,1.70
2023-02-17T13:52:17.740Z,1.27
2023-02-17T13:54:57.339Z,1.50
2023-02-17T13:57:32.467Z,1.27
2023-02-17T14:00:29.093Z,1.40
2023-02-17T14:03:15.583Z,1.60
2023-02-17T14:05:46.823Z,1.60
2023-02-17T14:08:34.260Z,1.65
2023-02-17T14:11:16.965Z,1.45
2023-02-17T14:13:45.824Z,1.65
2023-02-17T14:16:33.218Z,1.60
2023-02-17T14:19:17.240Z,1.33
2023-02-17T14:22:04.451Z,1.90
2023-02-17T14:24:36.121Z,1.33
2023-02-17T14:27:13.805Z,1.38
2023-02-17T14:29:50.110Z,1.27
2023-02-17T14:32:34.719Z,1.20
2023-02-17T14:35:13.310Z,1.40
2023-02-17T14:37:41.472Z,1.52
2023-02-17T14:40:28.196Z,1.35
2023-02-17T14:42:54.565Z,1.60
2023-02-17T14:45:20.901Z,1.10
2023-02-17T14:47:47.449Z,1.20
2023-02-17T14:50:16.073Z,1.13
2023-02-17T14:52:45.477Z,1.20
2023-02-17T14:55:35.221Z,1.52
2023-02-17T14:58:01.793Z,1.10
2023-02-17T15:00:28.535Z,1.63
2023-02-17T15:02:54.946Z,1.73
2023-02-17T15:05:21.319Z,1.13
2023-02-17T15:07:47.815Z,1.67
2023-02-17T15:10:28.095Z,1.05
2023-02-17T15:12:55.976Z,1.30
2023-02-17T15:15:22.575Z,0.95
2023-02-17T15:17:48.946Z,1.33
2023-02-17T15:20:16.536Z,1.40
2023-02-17T15:22:44.196Z,0.75
2023-02-17T15:27:47.212Z,1.20
2023-02-17T15:30:16.452Z,1.25
2023-02-17T15:32:43.603Z,1.40
2023-02-17T15:35:16.639Z,1.40
2023-02-17T15:37:43.083Z,1.40
2023-02-17T15:40:14.434Z,1.13
2023-02-17T15:42:40.888Z,0.88
2023-02-17T15:45:09.637Z,1.33
2023-02-17T15:47:36.037Z,1.10
2023-02-17T15:50:02.368Z,1.30
2023-02-17T15:52:28.692Z,1.30
2023-02-17T15:54:55.080Z,1.20
2023-02-17T15:57:25.357Z,1.10
2023-02-17T15:59:54.848Z,1.40
2023-02-17T16:02:23.201Z,1.15
2023-02-17T16:04:49.613Z,1.20
2023-02-17T16:07:16.011Z,1.23
2023-02-17T16:09:42.462Z,1.50
2023-02-17T16:12:16.449Z,1.70
2023-02-17T16:17:16.047Z,1.10
2023-02-17T16:19:42.600Z,1.77
2023-02-17T16:22:08.981Z,1.63
2023-02-17T16:24:35.301Z,1.55
2023-02-17T16:27:01.771Z,1.40
2023-02-17T16:29:28.214Z,1.58
2023-02-17T16:31:55.780Z,1.35
2023-02-17T16:36:51.059Z,1.40
2023-02-17T16:39:20.001Z,1.90
2023-02-17T16:41:46.981Z,1.08
2023-02-17T16:44:17.275Z,1.17
2023-02-17T16:46:51.945Z,1.40
2023-02-17T16:49:33.081Z,1.30
2023-02-17T16:52:05.733Z,0.93
2023-02-17T16:54:34.387Z,1.70
2023-02-17T16:57:01.771Z,1.65
2023-02-17T16:59:28.212Z,1.30
2023-02-17T17:01:54.604Z,1.27
2023-02-17T17:04:21.691Z,1.48
2023-02-17T17:06:50.488Z,1.88
2023-02-17T17:09:23.697Z,1.67
2023-02-17T17:11:50.211Z,1.50
2023-02-17T17:14:16.935Z,1.70
2023-02-17T17:16:49.093Z,1.27
2023-02-17T17:19:15.500Z,2.00
2023-02-17T17:21:41.872Z,1.98
2023-02-17T17:24:08.256Z,1.67
2023-02-17T17:26:39.811Z,1.88
2023-02-17T17:29:07.453Z,1.63
2023-02-17T17:31:34.460Z,1.15
2023-02-17T17:34:00.844Z,1.67
2023-02-17T17:36:39.361Z,1.40
2023-02-17T17:39:07.835Z,1.30
2023-02-17T17:41:34.231Z,1.30
2023-02-17T17:44:00.666Z,1.60
2023-02-17T17:46:31.923Z,1.50
2023-02-17T17:48:59.656Z,1.58
2023-02-17T17:51:28.157Z,1.58
2023-02-17T17:53:54.683Z,1.05
2023-02-17T17:56:28.499Z,1.60
2023-02-17T17:58:55.713Z,1.75
2023-02-17T18:01:22.175Z,1.83
2023-02-17T18:03:49.502Z,1.23
2023-02-17T18:06:19.298Z,1.40
2023-02-17T18:08:46.786Z,1.65
2023-02-17T18:11:15.881Z,1.70
2023-02-17T18:13:43.443Z,1.30
2023-02-17T18:16:10.126Z,1.73
2023-02-17T18:18:36.905Z,1.60
2023-02-17T18:21:03.425Z,1.77
2023-02-17T18:23:29.902Z,1.80
2023-02-17T18:25:56.254Z,1.60
2023-02-17T18:28:22.672Z,1.38
2023-02-17T18:30:49.101Z,1.60
2023-02-17T18:33:15.646Z,1.50
2023-02-17T18:35:43.994Z,1.45
2023-02-17T18:38:10.355Z,1.67
2023-02-17T18:40:40.543Z,1.70
2023-02-17T18:43:07.725Z,2.20
2023-02-17T18:45:34.215Z,2.05
2023-02-17T18:48:00.630Z,1.90
2023-02-17T18:50:27.392Z,2.03
2023-02-17T18:52:53.727Z,2.30
2023-02-17T18:55:20.131Z,2.05
2023-02-17T18:57:46.516Z,1.52
2023-02-17T19:00:15.400Z,1.80
2023-02-17T19:02:41.950Z,2.00
2023-02-17T19:05:10.021Z,2.33
2023-02-17T19:07:36.430Z,1.65
2023-02-17T19:10:03.958Z,1.73
2023-02-17T19:12:30.348Z,2.10
2023-02-17T19:14:56.732Z,2.35
2023-02-17T19:17:24.543Z,2.40
2023-02-17T19:19:51.244Z,2.42
2023-02-17T19:22:18.236Z,2.90
2023-02-17T19:24:45.097Z,2.33
2023-02-17T19:27:11.895Z,3.10
2023-02-17T19:29:38.320Z,3.08
2023-02-17T19:32:04.860Z,2.72
2023-02-17T19:34:31.996Z,3.45
2023-02-17T19:36:58.412Z,2.85
2023-02-17T19:39:24.801Z,2.35
2023-02-17T19:41:51.153Z,2.03
2023-02-17T19:44:17.598Z,2.50
2023-02-17T19:46:43.951Z,2.80
2023-02-17T19:49:10.343Z,2.65
2023-02-17T19:51:36.725Z,2.97
2023-02-17T19:54:03.120Z,3.20
2023-02-17T19:56:31.912Z,3.17
2023-02-17T19:58:58.635Z,3.00
2023-02-17T20:01:27.281Z,3.15
2023-02-17T20:03:55.020Z,3.15
2023-02-17T20:06:34.650Z,3.83
2023-02-17T20:09:04.584Z,3.75
2023-02-17T20:11:31.943Z,2.63
2023-02-17T20:13:59.427Z,4.38
2023-02-17T20:16:26.814Z,2.92
2023-02-17T20:18:55.085Z,3.45
2023-02-17T20:21:24.184Z,3.53
2023-02-17T20:23:51.385Z,4.10
2023-02-17T20:26:25.307Z,4.35
2023-02-17T20:28:51.793Z,3.50
2023-02-17T20:31:18.537Z,4.60
2023-02-17T20:33:45.358Z,3.60
2023-02-17T20:36:12.219Z,3.58
2023-02-17T20:38:40.500Z,3.80
2023-02-17T20:41:08.438Z,4.25
2023-02-17T20:43:37.460Z,4.93
2023-02-17T20:46:04.050Z,5.03
2023-02-17T20:48:30.368Z,5.07
2023-02-17T20:50:58.225Z,4.47
2023-02-17T20:53:25.741Z,4.25
2023-02-17T20:55:52.360Z,4.03
2023-02-17T20:58:19.017Z,4.00
2023-02-17T21:00:46.100Z,4.15
2023-02-17T21:03:12.543Z,4.78
2023-02-17T21:05:39.039Z,3.78
2023-02-17T21:08:05.398Z,3.75
2023-02-17T21:10:32.888Z,3.40
2023-02-17T21:12:59.266Z,3.38
2023-02-17T21:15:25.711Z,3.72
2023-02-17T21:17:52.088Z,3.90
2023-02-17T21:20:20.466Z,3.53
2023-02-17T21:22:46.896Z,3.33
2023-02-17T21:25:13.485Z,3.55
2023-02-17T21:27:39.871Z,3.38
2023-02-17T21:30:07.561Z,3.67
2023-02-17T21:35:00.138Z,3.55
2023-02-17T21:37:26.478Z,3.22
2023-02-17T21:39:52.858Z,3.47
2023-02-17T21:42:39.162Z,3.28
2023-02-17T21:45:05.884Z,3.17
2023-02-17T21:47:32.534Z,3.63
2023-02-17T21:49:59.099Z,2.63
2023-02-17T21:52:25.437Z,3.47
2023-02-17T21:54:51.827Z,3.20
2023-02-17T21:57:18.249Z,3.47
2023-02-17T21:59:44.611Z,3.60
2023-02-17T22:02:11.830Z,3.15
2023-02-17T22:04:38.223Z,3.35
2023-02-17T22:07:04.565Z,3.13
2023-02-17T22:09:30.919Z,3.58
2023-02-17T22:11:57.276Z,3.83
2023-02-17T22:14:23.609Z,3.67
2023-02-17T22:16:49.998Z,3.95
2023-02-17T22:19:23.625Z,4.30
2023-02-17T22:21:51.281Z,3.97
2023-02-17T22:26:43.922Z,3.83
2023-02-17T22:29:10.269Z,3.33
2023-02-17T22:31:36.693Z,3.80
2023-02-17T22:34:06.308Z,3.85
2023-02-17T22:36:34.621Z,3.70
2023-02-17T22:39:01.699Z,4.22
2023-02-17T22:41:28.304Z,4.65
2023-02-17T22:43:54.869Z,3.85
2023-02-17T22:46:23.223Z,4.13
2023-02-17T22:48:51.846Z,3.08
2023-02-17T22:51:20.620Z,3.58
2023-02-17T22:53:47.254Z,3.45
2023-02-17T22:56:13.942Z,3.60
2023-02-17T22:58:40.682Z,3.65
2023-02-17T23:01:15.718Z,3.63
2023-02-17T23:03:42.596Z,3.58
2023-02-17T23:06:12.541Z,3.90
2023-02-17T23:08:39.196Z,3.75
2023-02-17T23:11:10.518Z,3.20
2023-02-17T23:13:37.784Z,3.20
2023-02-17T23:16:05.154Z,2.05
2023-02-17T23:18:33.152Z,3.17
2023-02-17T23:21:00.108Z,2.80
2023-02-17T23:23:26.782Z,2.97
2023-02-17T23:25:54.974Z,2.70
2023-02-17T23:28:23.492Z,2.97
2023-02-17T23:30:50.457Z,3.00
2023-02-17T23:33:18.408Z,3.40
2023-02-17T23:35:45.859Z,3.40
2023-02-17T23:38:13.771Z,3.50
2023-02-17T23:40:40.384Z,3.35
2023-02-17T23:43:06.785Z,2.90
2023-02-17T23:45:33.970Z,4.00
2023-02-17T23:48:00.330Z,4.47
2023-02-17T23:50:26.879Z,4.28
2023-02-17T23:52:53.236Z,4.30
2023-02-17T23:55:19.631Z,3.72
2023-02-17T23:57:46.007Z,3.75
